Terminal Aerodrome Forecast
Issued by NWS Tuscon, AZ

Home | Current Version | Previous Version | Text Only | Print | Product List | Glossary On
Versions: 1 2 3 4 5 6 7 8 9 10 11 12 13 14 15 16
170
FTUS45 KTWC 251242 AAA
TAFTUS
TAF AMD
KTUS 251242Z 2513/2612 11011KT P6SM SCT130 BKN180
      TEMPO 2513/2515 12015G25KT
     FM251700 05006KT P6SM FEW100 SCT150
     FM252200 30011G17KT P6SM VCTS FEW060 SCT120CB BKN180
     FM260200 20008KT P6SM SCT120 BKN180
     FM260700 15010KT P6SM FEW120 SCT180=

USA.gov is the U.S. government's official web portal to all federal, state and local government web resources and services.